createdAt,value
2023-02-11T00:01:13.046Z,40.17
2023-02-11T00:03:39.620Z,41.20
2023-02-11T00:06:10.688Z,44.83
2023-02-11T00:08:37.695Z,46.72
2023-02-11T00:11:04.248Z,45.83
2023-02-11T00:13:30.642Z,45.05
2023-02-11T00:15:56.969Z,43.08
2023-02-11T00:18:23.431Z,47.35
2023-02-11T00:20:50.178Z,45.38
2023-02-11T00:23:18.180Z,45.13
2023-02-11T00:25:45.502Z,46.13
2023-02-11T00:28:12.100Z,44.10
2023-02-11T00:30:40.289Z,45.83
2023-02-11T00:33:06.972Z,44.83
2023-02-11T00:35:33.574Z,47.50
2023-02-11T00:37:59.958Z,47.05
2023-02-11T00:40:26.350Z,47.75
2023-02-11T00:42:52.715Z,47.47
2023-02-11T00:45:21.078Z,46.88
2023-02-11T00:47:47.472Z,48.17
2023-02-11T00:50:13.885Z,44.63
2023-02-11T00:52:40.357Z,48.28
2023-02-11T00:55:07.633Z,49.80
2023-02-11T00:57:34.057Z,43.67
2023-02-11T01:00:00.387Z,49.97
2023-02-11T01:02:26.717Z,46.45
2023-02-11T01:04:53.173Z,42.72
2023-02-11T01:07:19.520Z,48.08
2023-02-11T01:09:47.195Z,45.47
2023-02-11T01:12:13.685Z,45.00
2023-02-11T01:14:40.050Z,47.90
2023-02-11T01:17:06.637Z,47.85
2023-02-11T01:19:33.152Z,51.55
2023-02-11T01:22:01.189Z,54.28
2023-02-11T01:24:27.593Z,48.42
2023-02-11T01:26:53.975Z,52.38
2023-02-11T01:29:20.355Z,50.58
2023-02-11T01:31:47.091Z,53.58
2023-02-11T01:34:13.919Z,52.17
2023-02-11T01:36:40.535Z,43.22
2023-02-11T01:39:08.424Z,48.72
2023-02-11T01:41:35.124Z,50.65
2023-02-11T01:44:26.440Z,53.88
2023-02-11T01:46:53.576Z,54.15
2023-02-11T01:49:25.315Z,54.50
2023-02-11T01:51:56.666Z,50.22
2023-02-11T01:54:43.691Z,55.80
2023-02-11T01:57:24.757Z,51.85
2023-02-11T01:59:59.552Z,54.88
2023-02-11T02:02:42.986Z,52.33
2023-02-11T02:05:27.720Z,50.70
2023-02-11T02:08:03.448Z,52.28
2023-02-11T02:10:30.937Z,51.92
2023-02-11T02:12:57.528Z,54.80
2023-02-11T02:15:29.482Z,55.47
2023-02-11T02:18:10.813Z,51.22
2023-02-11T02:20:49.078Z,56.58
2023-02-11T02:23:34.059Z,54.05
2023-02-11T02:26:22.772Z,49.92
2023-02-11T02:29:26.837Z,47.67
2023-02-11T02:32:16.162Z,55.28
2023-02-11T02:35:14.606Z,53.70
2023-02-11T02:37:51.241Z,53.25
2023-02-11T02:40:24.988Z,50.35
2023-02-11T02:42:51.500Z,50.00
2023-02-11T02:45:18.010Z,48.20
2023-02-11T02:47:44.356Z,48.55
2023-02-11T02:50:11.799Z,47.63
2023-02-11T02:52:52.835Z,45.00
2023-02-11T02:55:30.937Z,53.50
2023-02-11T02:58:23.625Z,52.53
2023-02-11T03:01:19.628Z,56.95
2023-02-11T03:03:54.537Z,52.28
2023-02-11T03:06:25.979Z,55.15
2023-02-11T03:08:58.968Z,50.30
2023-02-11T03:11:26.050Z,56.10
2023-02-11T03:13:52.757Z,53.83
2023-02-11T03:16:23.118Z,54.72
2023-02-11T03:18:53.624Z,56.30
2023-02-11T03:21:20.193Z,56.58
2023-02-11T03:23:50.670Z,52.40
2023-02-11T03:26:34.747Z,56.38
2023-02-11T03:29:06.950Z,57.67
2023-02-11T03:32:03.187Z,57.55
2023-02-11T03:34:51.963Z,60.03
2023-02-11T03:37:40.804Z,59.45
2023-02-11T03:40:13.414Z,55.83
2023-02-11T03:42:49.930Z,64.00
2023-02-11T03:45:20.419Z,56.40
2023-02-11T03:47:49.940Z,57.25
2023-02-11T03:50:17.266Z,56.88
2023-02-11T03:52:43.892Z,60.38
2023-02-11T03:55:13.695Z,58.20
2023-02-11T03:57:40.196Z,61.75
2023-02-11T04:00:07.370Z,54.67
2023-02-11T04:02:36.020Z,63.92
2023-02-11T04:05:02.478Z,60.00
2023-02-11T04:07:28.916Z,63.47
2023-02-11T04:09:55.295Z,57.58
2023-02-11T04:12:21.778Z,59.63
2023-02-11T04:14:48.266Z,58.58
2023-02-11T04:17:14.626Z,61.70
2023-02-11T04:19:41.043Z,58.35
2023-02-11T04:22:07.454Z,58.97
2023-02-11T04:24:33.942Z,54.80
2023-02-11T04:27:00.403Z,58.03
2023-02-11T04:29:28.070Z,56.88
2023-02-11T04:31:54.991Z,57.28
2023-02-11T04:34:21.764Z,57.75
2023-02-11T04:36:48.139Z,52.20
2023-02-11T04:39:14.501Z,53.33
2023-02-11T04:41:40.850Z,55.97
2023-02-11T04:44:07.231Z,56.03
2023-02-11T04:46:33.623Z,53.22
2023-02-11T04:48:59.956Z,53.72
2023-02-11T04:51:26.307Z,50.53
2023-02-11T04:53:52.906Z,51.92
2023-02-11T04:56:19.275Z,53.58
2023-02-11T04:58:45.720Z,49.08
2023-02-11T05:01:14.368Z,53.50
2023-02-11T05:03:41.352Z,57.40
2023-02-11T05:06:09.218Z,55.55
2023-02-11T05:08:35.618Z,53.42
2023-02-11T05:11:02.175Z,51.63
2023-02-11T05:13:29.415Z,60.22
2023-02-11T05:15:55.824Z,58.38
2023-02-11T05:18:22.447Z,56.10
2023-02-11T05:20:48.824Z,55.47
2023-02-11T05:23:15.222Z,52.08
2023-02-11T05:25:41.618Z,59.95
2023-02-11T05:28:08.121Z,52.90
2023-02-11T05:30:34.507Z,52.47
2023-02-11T05:33:00.959Z,51.88
2023-02-11T05:35:27.382Z,49.85
2023-02-11T05:37:53.760Z,51.05
2023-02-11T05:40:20.104Z,53.70
2023-02-11T05:42:46.455Z,49.38
2023-02-11T05:45:12.878Z,56.22
2023-02-11T05:47:39.229Z,52.67
2023-02-11T05:50:05.973Z,51.42
2023-02-11T05:52:32.374Z,51.97
2023-02-11T05:54:59.117Z,49.53
2023-02-11T05:57:25.502Z,51.67
2023-02-11T05:59:51.929Z,54.42
2023-02-11T06:02:18.321Z,50.03
2023-02-11T06:04:44.682Z,49.67
2023-02-11T06:07:11.048Z,48.50
2023-02-11T06:09:37.768Z,52.42
2023-02-11T06:12:04.914Z,51.00
2023-02-11T06:14:33.625Z,51.80
2023-02-11T06:17:00.389Z,44.03
2023-02-11T06:19:26.781Z,52.42
2023-02-11T06:21:53.170Z,49.75
2023-02-11T06:24:38.473Z,51.08
2023-02-11T06:27:06.136Z,53.20
2023-02-11T06:29:32.797Z,50.72
2023-02-11T06:31:59.295Z,47.28
2023-02-11T06:34:25.769Z,49.53
2023-02-11T06:36:52.089Z,48.03
2023-02-11T06:39:18.418Z,52.53
2023-02-11T06:41:44.779Z,52.03
2023-02-11T06:44:11.151Z,53.17
2023-02-11T06:46:37.606Z,51.63
2023-02-11T06:49:04.006Z,50.33
2023-02-11T06:51:30.331Z,49.08
2023-02-11T06:53:56.747Z,49.85
2023-02-11T06:56:24.597Z,51.55
2023-02-11T06:58:55.417Z,53.47
2023-02-11T07:01:22.571Z,51.10
2023-02-11T07:03:49.183Z,54.83
2023-02-11T07:06:24.577Z,49.42
2023-02-11T07:08:51.120Z,48.83
2023-02-11T07:11:24.376Z,51.92
2023-02-11T07:13:51.748Z,44.35
2023-02-11T07:16:19.137Z,49.92
2023-02-11T07:18:46.434Z,51.42
2023-02-11T07:21:14.681Z,51.58
2023-02-11T07:23:41.296Z,49.58
2023-02-11T07:26:09.587Z,50.95
2023-02-11T07:28:36.531Z,47.58
2023-02-11T07:31:14.045Z,48.28
2023-02-11T07:33:41.927Z,50.28
2023-02-11T07:36:10.114Z,50.85
2023-02-11T07:38:37.084Z,56.20
2023-02-11T07:41:06.316Z,56.47
2023-02-11T07:43:33.193Z,52.10
2023-02-11T07:45:59.685Z,49.17
2023-02-11T07:48:26.352Z,54.92
2023-02-11T07:50:52.949Z,53.70
2023-02-11T07:53:19.421Z,52.03
2023-02-11T07:55:45.856Z,47.58
2023-02-11T07:58:12.397Z,55.05
2023-02-11T08:00:38.825Z,50.65
2023-02-11T08:03:05.420Z,51.58
2023-02-11T08:05:31.874Z,51.45
2023-02-11T08:07:58.313Z,50.15
2023-02-11T08:10:24.714Z,47.72
2023-02-11T08:12:51.162Z,49.63
2023-02-11T08:15:17.594Z,48.97
2023-02-11T08:17:43.916Z,53.00
2023-02-11T08:20:10.480Z,46.63
2023-02-11T08:22:36.886Z,50.65
2023-02-11T08:25:03.311Z,46.90
2023-02-11T08:27:29.768Z,47.03
2023-02-11T08:29:56.702Z,48.28
2023-02-11T08:32:25.808Z,44.63
2023-02-11T08:34:52.687Z,45.90
2023-02-11T08:37:19.423Z,49.63
2023-02-11T08:39:47.136Z,47.80
2023-02-11T08:42:15.508Z,46.22
2023-02-11T08:44:41.918Z,42.00
2023-02-11T08:47:08.268Z,46.92
2023-02-11T08:49:34.700Z,44.53
2023-02-11T08:52:04.109Z,43.53
2023-02-11T08:54:31.461Z,46.10
2023-02-11T08:56:58.252Z,45.65
2023-02-11T08:59:24.699Z,45.65
2023-02-11T09:01:51.139Z,49.80
2023-02-11T09:04:17.752Z,44.17
2023-02-11T09:06:44.171Z,45.13
2023-02-11T09:09:13.653Z,53.92
2023-02-11T09:11:41.367Z,53.10
2023-02-11T09:14:07.739Z,50.08
2023-02-11T09:16:35.952Z,47.40
2023-02-11T09:19:04.312Z,40.30
2023-02-11T09:21:30.868Z,41.15
2023-02-11T09:23:57.529Z,38.53
2023-02-11T09:26:31.973Z,37.65
2023-02-11T09:28:59.186Z,40.72
2023-02-11T09:31:27.015Z,43.22
2023-02-11T09:33:59.476Z,42.80
2023-02-11T09:36:28.692Z,41.33
2023-02-11T09:38:55.963Z,40.83
2023-02-11T09:41:25.197Z,41.28
2023-02-11T09:43:54.052Z,38.60
2023-02-11T09:46:21.610Z,41.85
2023-02-11T09:48:49.304Z,41.10
2023-02-11T09:51:47.165Z,40.22
2023-02-11T09:54:19.899Z,39.38
2023-02-11T09:56:46.356Z,40.20
2023-02-11T09:59:16.448Z,39.67
2023-02-11T10:01:59.928Z,43.22
2023-02-11T10:04:38.261Z,43.70
2023-02-11T10:07:15.644Z,44.42
2023-02-11T10:09:48.901Z,42.80
2023-02-11T10:12:40.040Z,44.13
2023-02-11T10:15:36.983Z,45.80
2023-02-11T10:18:37.219Z,41.10
2023-02-11T10:21:17.244Z,45.50
2023-02-11T10:23:48.019Z,41.83
2023-02-11T10:26:18.333Z,43.92
2023-02-11T10:28:47.855Z,42.53
2023-02-11T10:31:30.173Z,44.83
2023-02-11T10:34:03.067Z,44.08
2023-02-11T10:36:31.491Z,44.05
2023-02-11T10:39:00.155Z,44.10
2023-02-11T10:41:32.703Z,47.00
2023-02-11T10:44:00.842Z,42.08
2023-02-11T10:46:31.508Z,43.25
2023-02-11T10:48:57.928Z,45.38
2023-02-11T10:51:29.132Z,43.45
2023-02-11T10:54:04.511Z,39.83
2023-02-11T10:56:35.951Z,40.95
2023-02-11T10:59:06.027Z,43.90
2023-02-11T11:01:52.682Z,40.63
2023-02-11T11:04:31.975Z,43.78
2023-02-11T11:07:18.443Z,41.22
2023-02-11T11:10:04.021Z,40.10
2023-02-11T11:12:46.343Z,47.58
2023-02-11T11:15:22.994Z,46.97
2023-02-11T11:17:50.793Z,38.42
2023-02-11T11:20:27.507Z,39.40
2023-02-11T11:23:09.159Z,38.50
2023-02-11T11:25:37.854Z,37.92
2023-02-11T11:28:04.518Z,40.47
2023-02-11T11:30:40.885Z,40.85
2023-02-11T11:33:24.933Z,40.92
2023-02-11T11:36:05.068Z,37.00
2023-02-11T11:38:32.960Z,37.42
2023-02-11T11:41:21.422Z,36.33
2023-02-11T11:44:18.328Z,38.85
2023-02-11T11:46:44.947Z,41.30
2023-02-11T11:49:23.364Z,35.58
2023-02-11T11:51:56.773Z,39.80
2023-02-11T11:54:24.027Z,42.28
2023-02-11T11:56:54.817Z,34.13
2023-02-11T11:59:21.708Z,37.67
2023-02-11T12:02:17.570Z,39.55
2023-02-11T12:05:00.279Z,38.25
2023-02-11T12:07:49.923Z,38.13
2023-02-11T12:10:41.332Z,38.30
2023-02-11T12:13:42.674Z,38.80
2023-02-11T12:16:37.524Z,37.88
2023-02-11T12:19:03.903Z,41.10
2023-02-11T12:21:53.242Z,36.47
2023-02-11T12:24:32.310Z,39.95
2023-02-11T12:27:20.140Z,36.72
2023-02-11T12:30:03.916Z,36.95
2023-02-11T12:32:52.878Z,36.00
2023-02-11T12:35:58.715Z,39.67
2023-02-11T12:38:32.765Z,35.25
2023-02-11T12:43:46.233Z,38.60
2023-02-11T12:46:24.727Z,37.55
2023-02-11T12:49:18.392Z,33.78
2023-02-11T12:52:02.704Z,33.65
2023-02-11T12:57:02.275Z,34.95
2023-02-11T12:59:56.217Z,35.85
2023-02-11T13:02:41.126Z,36.77
2023-02-11T13:05:23.675Z,31.15
2023-02-11T13:07:51.876Z,36.28
2023-02-11T13:10:38.563Z,31.75
2023-02-11T13:13:17.229Z,33.05
2023-02-11T13:15:47.964Z,31.42
2023-02-11T13:18:19.992Z,31.00
2023-02-11T13:21:20.444Z,30.65
2023-02-11T13:23:51.971Z,31.13
2023-02-11T13:26:40.552Z,33.60
2023-02-11T13:29:21.487Z,32.72
2023-02-11T13:32:09.808Z,31.77
2023-02-11T13:34:42.064Z,30.50
2023-02-11T13:37:26.622Z,31.50
2023-02-11T13:40:02.056Z,31.13
2023-02-11T13:42:29.362Z,29.95
2023-02-11T13:44:56.685Z,32.45
2023-02-11T13:47:29.215Z,30.92
2023-02-11T13:49:56.193Z,29.80
2023-02-11T13:52:31.988Z,29.48
2023-02-11T13:55:08.222Z,28.67
2023-02-11T13:57:37.197Z,31.13
2023-02-11T14:00:46.870Z,33.20
2023-02-11T14:03:32.077Z,29.63
2023-02-11T14:06:29.238Z,30.35
2023-02-11T14:09:14.110Z,26.88
2023-02-11T14:11:43.029Z,25.98
2023-02-11T14:14:24.145Z,30.73
2023-02-11T14:17:02.766Z,27.23
2023-02-11T14:19:33.584Z,29.02
2023-02-11T14:22:23.888Z,26.60
2023-02-11T14:24:53.920Z,27.60
2023-02-11T14:27:38.449Z,25.40
2023-02-11T14:30:36.779Z,27.67
2023-02-11T14:33:07.482Z,25.33
2023-02-11T14:35:57.136Z,24.70
2023-02-11T14:38:34.216Z,24.75
2023-02-11T14:41:22.753Z,26.83
2023-02-11T14:43:52.700Z,24.73
2023-02-11T14:46:20.752Z,23.45
2023-02-11T14:48:49.409Z,22.17
2023-02-11T14:51:25.698Z,23.80
2023-02-11T14:53:55.718Z,26.05
2023-02-11T14:56:26.269Z,24.48
2023-02-11T14:58:54.159Z,21.00
2023-02-11T15:01:32.385Z,27.83
2023-02-11T15:03:59.324Z,22.27
2023-02-11T15:06:38.472Z,28.55
2023-02-11T15:09:13.013Z,21.05
2023-02-11T15:11:41.157Z,25.52
2023-02-11T15:14:15.164Z,19.42
2023-02-11T15:19:18.991Z,19.52
2023-02-11T15:21:46.619Z,20.08
2023-02-11T15:24:25.711Z,17.75
2023-02-11T15:27:02.535Z,24.50
2023-02-11T15:29:36.671Z,43.47
2023-02-11T15:32:11.089Z,27.50
2023-02-11T15:34:37.703Z,22.63
2023-02-11T15:37:04.355Z,17.92
2023-02-11T15:39:35.529Z,18.25
2023-02-11T15:42:35.810Z,20.27
2023-02-11T15:45:11.861Z,21.75
2023-02-11T15:47:38.896Z,21.75
2023-02-11T15:50:06.305Z,18.45
2023-02-11T15:52:33.318Z,18.92
2023-02-11T15:55:01.607Z,22.83
2023-02-11T15:57:28.322Z,21.85
2023-02-11T15:59:56.154Z,21.00
2023-02-11T16:02:32.446Z,23.83
2023-02-11T16:05:08.369Z,19.20
2023-02-11T16:07:39.908Z,21.15
2023-02-11T16:10:20.988Z,25.92
2023-02-11T16:13:02.618Z,28.35
2023-02-11T16:15:34.958Z,23.75
2023-02-11T16:18:02.344Z,23.67
2023-02-11T16:20:28.849Z,24.27
2023-02-11T16:22:55.401Z,22.30
2023-02-11T16:25:22.037Z,17.92
2023-02-11T16:27:49.840Z,21.23
2023-02-11T16:30:37.428Z,18.33
2023-02-11T16:33:05.375Z,19.25
2023-02-11T16:35:32.197Z,22.20
2023-02-11T16:37:58.600Z,18.88
2023-02-11T16:40:25.104Z,17.75
2023-02-11T16:42:53.262Z,20.60
2023-02-11T16:45:19.688Z,19.27
2023-02-11T16:47:46.417Z,21.27
2023-02-11T16:50:22.128Z,23.23
2023-02-11T16:52:48.911Z,24.85
2023-02-11T16:55:15.431Z,23.30
2023-02-11T16:57:41.751Z,26.15
2023-02-11T17:00:08.826Z,24.15
2023-02-11T17:02:36.563Z,22.38
2023-02-11T17:05:06.254Z,27.88
2023-02-11T17:07:33.172Z,24.05
2023-02-11T17:09:59.678Z,21.77
2023-02-11T17:12:26.409Z,20.98
2023-02-11T17:14:53.480Z,24.50
2023-02-11T17:17:21.819Z,23.02
2023-02-11T17:19:48.393Z,21.92
2023-02-11T17:22:14.723Z,25.60
2023-02-11T17:24:41.043Z,24.25
2023-02-11T17:27:07.364Z,23.48
2023-02-11T17:29:33.714Z,24.92
2023-02-11T17:32:00.251Z,23.88
2023-02-11T17:34:29.039Z,20.83
2023-02-11T17:36:55.400Z,26.23
2023-02-11T17:39:21.893Z,20.35
2023-02-11T17:41:48.343Z,23.35
2023-02-11T17:44:16.168Z,21.20
2023-02-11T17:46:42.496Z,22.98
2023-02-11T17:49:11.059Z,25.80
2023-02-11T17:51:38.548Z,24.50
2023-02-11T17:54:13.641Z,24.35
2023-02-11T17:56:40.713Z,25.45
2023-02-11T17:59:08.557Z,29.45
2023-02-11T18:01:36.340Z,26.45
2023-02-11T18:04:03.313Z,28.20
2023-02-11T18:06:29.792Z,31.38
2023-02-11T18:08:59.471Z,26.08
2023-02-11T18:11:25.904Z,24.33
2023-02-11T18:13:54.506Z,24.70
2023-02-11T18:16:21.932Z,25.95
2023-02-11T18:18:49.625Z,33.78
2023-02-11T18:21:17.599Z,29.27
2023-02-11T18:23:44.162Z,37.35
2023-02-11T18:26:12.484Z,36.58
2023-02-11T18:28:39.666Z,24.77
2023-02-11T18:31:07.359Z,23.25
2023-02-11T18:33:37.434Z,25.65
2023-02-11T18:36:08.160Z,26.05
2023-02-11T18:38:34.758Z,30.63
2023-02-11T18:41:01.121Z,28.13
2023-02-11T18:43:31.553Z,28.92
2023-02-11T18:45:58.127Z,30.30
2023-02-11T18:48:26.922Z,26.88
2023-02-11T18:50:53.837Z,27.33
2023-02-11T18:53:20.794Z,28.10
2023-02-11T18:55:47.555Z,25.23
2023-02-11T18:58:15.111Z,25.02
2023-02-11T19:00:43.672Z,27.27
2023-02-11T19:03:10.067Z,29.05
2023-02-11T19:05:47.243Z,28.50
2023-02-11T19:08:14.165Z,34.50
2023-02-11T19:10:45.762Z,29.92
2023-02-11T19:13:12.580Z,30.35
2023-02-11T19:15:42.876Z,29.52
2023-02-11T19:18:09.539Z,34.40
2023-02-11T19:20:40.046Z,34.40
2023-02-11T19:23:06.656Z,31.40
2023-02-11T19:25:33.233Z,31.90
2023-02-11T19:28:00.267Z,30.60
2023-02-11T19:30:26.811Z,32.17
2023-02-11T19:32:56.881Z,30.52
2023-02-11T19:35:24.162Z,31.50
2023-02-11T19:37:50.549Z,29.98
2023-02-11T19:40:17.009Z,30.73
2023-02-11T19:42:43.673Z,33.42
2023-02-11T19:45:10.302Z,35.65
2023-02-11T19:47:36.706Z,36.90
2023-02-11T19:50:05.169Z,33.38
2023-02-11T19:52:31.639Z,33.20
2023-02-11T19:54:57.976Z,37.35
2023-02-11T19:57:24.372Z,33.20
2023-02-11T19:59:53.073Z,37.03
2023-02-11T20:02:19.487Z,37.80
2023-02-11T20:04:46.298Z,43.40
2023-02-11T20:07:12.752Z,38.10
2023-02-11T20:09:40.850Z,40.55
2023-02-11T20:12:07.258Z,41.45
2023-02-11T20:14:33.576Z,39.53
2023-02-11T20:17:00.115Z,41.45
2023-02-11T20:19:27.811Z,42.53
2023-02-11T20:21:55.531Z,38.55
2023-02-11T20:24:22.784Z,40.25
2023-02-11T20:26:49.354Z,41.67
2023-02-11T20:29:17.431Z,42.03
2023-02-11T20:31:44.391Z,42.72
2023-02-11T20:34:11.966Z,41.13
2023-02-11T20:36:40.108Z,42.30
2023-02-11T20:39:07.077Z,42.47
2023-02-11T20:41:39.090Z,42.10
2023-02-11T20:44:07.944Z,40.67
2023-02-11T20:46:37.163Z,50.13
2023-02-11T20:49:03.572Z,40.47
2023-02-11T20:51:32.629Z,41.75
2023-02-11T20:53:59.507Z,45.97
2023-02-11T20:56:34.757Z,44.97
2023-02-11T20:59:02.069Z,41.70
2023-02-11T21:01:31.134Z,41.17
2023-02-11T21:04:00.124Z,38.63
2023-02-11T21:06:30.627Z,46.78
2023-02-11T21:08:57.488Z,45.92
2023-02-11T21:11:23.958Z,47.33
2023-02-11T21:13:51.005Z,48.00
2023-02-11T21:16:22.576Z,51.17
2023-02-11T21:18:49.941Z,49.65
2023-02-11T21:21:17.548Z,49.28
2023-02-11T21:23:44.059Z,55.83
2023-02-11T21:26:10.758Z,49.03
2023-02-11T21:28:39.829Z,50.60
2023-02-11T21:31:07.396Z,52.10
2023-02-11T21:33:34.552Z,52.25
2023-02-11T21:36:02.594Z,47.47
2023-02-11T21:38:29.565Z,50.25
2023-02-11T21:40:56.231Z,50.22
2023-02-11T21:43:22.597Z,51.17
2023-02-11T21:45:51.045Z,53.30
2023-02-11T21:48:19.542Z,52.08
2023-02-11T21:50:47.059Z,53.85
2023-02-11T21:53:13.801Z,55.33
2023-02-11T21:55:40.635Z,50.97
2023-02-11T21:58:07.902Z,54.20
2023-02-11T22:00:34.397Z,52.35
2023-02-11T22:03:00.751Z,50.85
2023-02-11T22:05:27.200Z,54.15
2023-02-11T22:07:53.601Z,33.30
2023-02-11T22:10:20.103Z,41.40
2023-02-11T22:12:46.515Z,47.88
2023-02-11T22:15:13.291Z,51.92
2023-02-11T22:17:39.642Z,49.35
2023-02-11T22:20:06.843Z,47.85
2023-02-11T22:22:33.198Z,46.42
2023-02-11T22:25:01.770Z,43.47
2023-02-11T22:27:28.175Z,46.13
2023-02-11T22:29:54.499Z,45.33
2023-02-11T22:32:20.875Z,41.90
2023-02-11T22:34:47.271Z,43.30
2023-02-11T22:37:14.140Z,41.38
2023-02-11T22:39:42.023Z,35.60
2023-02-11T22:42:08.927Z,40.28
2023-02-11T22:44:38.528Z,35.60
2023-02-11T22:47:08.085Z,33.95
2023-02-11T22:49:35.471Z,34.83
2023-02-11T22:52:01.827Z,34.65
2023-02-11T22:54:28.250Z,35.38
2023-02-11T22:56:54.718Z,36.17
2023-02-11T22:59:21.128Z,39.75
2023-02-11T23:01:48.020Z,32.78
2023-02-11T23:04:15.873Z,33.63
2023-02-11T23:06:42.843Z,38.67
2023-02-11T23:09:10.190Z,36.90
2023-02-11T23:11:36.579Z,35.92
2023-02-11T23:14:03.604Z,35.50
2023-02-11T23:16:34.440Z,39.08
2023-02-11T23:19:05.988Z,35.63
2023-02-11T23:21:34.205Z,33.55
2023-02-11T23:24:08.771Z,37.53
2023-02-11T23:26:35.491Z,37.35
2023-02-11T23:29:01.935Z,37.40
2023-02-11T23:31:33.840Z,37.25
2023-02-11T23:34:01.138Z,39.17
2023-02-11T23:36:27.875Z,35.10
2023-02-11T23:38:54.313Z,34.92
2023-02-11T23:41:20.961Z,36.75
2023-02-11T23:43:52.546Z,37.78
2023-02-11T23:46:19.540Z,43.15
2023-02-11T23:48:46.000Z,37.72
2023-02-11T23:51:12.413Z,46.75
2023-02-11T23:53:39.224Z,37.92
2023-02-11T23:56:08.163Z,36.58
2023-02-11T23:58:34.797Z,39.28
